Terminal Aerodrome Forecast
Issued by NWS Twin Cities, MN

Home | Current Version | Previous Version | Graphics & Text | Print | Product List | Glossary On
Versions: 1 2 3 4 5 6 7 8 9 10 11 12 13 14 15 16 17 18 19
000
FTUS43 KMPX 261100
TAFSTC
TAF
KSTC 261125Z 2612/2712 28005KT P6SM SKC
      TEMPO 2612/2613 3SM BR
     FM261800 26011KT P6SM SKC
     FM262000 26012G18KT P6SM SCT050
     FM262300 26006KT P6SM VCSH SCT060 BKN250
     FM270200 27009KT P6SM SCT050=

USA.gov is the U.S. government's official web portal to all federal, state and local government web resources and services.